»·PEaware :: SWA611 KLAX-KSFO

SWA611 :: KLAX-KSFO

FLIGHT INFORMATION

Flight Status: Arrived
Operator:
Southwest Airlines
More flights by this operator :: More flights under this callsign
Pilot: Maximilliano F. (23467)
Aircraft: BOEING 737-800
(B738)
More flights by this aircraft type
Origin: KLAX Los Angeles Intl
United States
Destination: KSFO San Francisco Intl
United States
More flights between these airports :: More routes between these airports
Route: SUMMR1 STOKD SERFR SERFR3
File this flight plan on PilotEdge
Remarks: RMK / SIMBRIEF
Altitude:
(Current/Filed)
36,000ft
Speed:
(Current/Filed)
457kts
Departed: 20-Oct-19 09:27 PM
Arrived: 20-Oct-19 10:23 PM
Distance/Time
Traveled:
293nm/0:56
Distance/Time
To Go:
Arrived

Flight Plot

Page will automatically refresh every two minutes.

Flight plan parsing failed; only flown route is shown


Map Options




Map Legend


Flown Route
Filed Route
Departure Airport
Arrival Airport
Navaid (VOR, NDB)
Fix

Horizontal Profiles

Position Reports

Time Latitude Longitude Heading Altitude Ground
Speed
20-Oct-19 21:00 33.947324 -118.400604 259 121ft 0kts
20-Oct-19 21:01 33.947324 -118.400604 259 121ft 0kts
20-Oct-19 21:02 33.947324 -118.400604 259 121ft 0kts
20-Oct-19 21:03 33.947324 -118.400604 259 121ft 0kts
20-Oct-19 21:04 33.947324 -118.400604 259 121ft 0kts
20-Oct-19 21:05 33.947324 -118.400604 259 121ft 0kts
20-Oct-19 21:06 33.947324 -118.400604 259 121ft 0kts
20-Oct-19 21:07 33.947324 -118.400604 259 121ft 0kts
20-Oct-19 21:08 33.947324 -118.400604 259 121ft 0kts
20-Oct-19 21:09 33.947324 -118.400604 259 121ft 0kts
20-Oct-19 21:10 33.947324 -118.400604 259 121ft 0kts
20-Oct-19 21:11 33.947324 -118.400604 259 121ft 0kts
20-Oct-19 21:12 33.947324 -118.400604 259 121ft 0kts
20-Oct-19 21:13 33.947324 -118.400604 259 121ft 0kts
20-Oct-19 21:14 33.947324 -118.400604 259 121ft 0kts
20-Oct-19 21:15 33.947208 -118.400169 324 121ft 2kts
20-Oct-19 21:16 33.946899 -118.400132 2 121ft 0kts
20-Oct-19 21:17 33.946899 -118.400132 2 121ft 0kts
20-Oct-19 21:18 33.946899 -118.400132 2 121ft 0kts
20-Oct-19 21:19 33.947016 -118.400126 2 121ft 2kts
20-Oct-19 21:20 33.948201 -118.400072 345 120ft 0kts
20-Oct-19 21:21 33.948504 -118.400594 311 120ft 6kts
20-Oct-19 21:22 33.949418 -118.399343 52 118ft 6kts
20-Oct-19 21:23 33.949476 -118.399269 43 117ft 0kts
20-Oct-19 21:24 33.949476 -118.399269 43 117ft 0kts
20-Oct-19 21:25 33.950393 -118.399714 267 117ft 8kts
20-Oct-19 21:26 33.948087 -118.421991 261 157ft 189kts
20-Oct-19 21:27 33.942697 -118.489976 270 2831ft 247kts
20-Oct-19 21:28 33.936690 -118.580537 265 5932ft 285kts
20-Oct-19 21:29 33.929308 -118.674447 266 10059ft 295kts
20-Oct-19 21:30 33.921041 -118.781234 267 11960ft 330kts
20-Oct-19 21:31 33.918546 -118.891432 276 14381ft 337kts
20-Oct-19 21:32 33.926194 -119.005420 290 17897ft 349kts
20-Oct-19 21:33 33.970370 -119.109737 305 21126ft 359kts
20-Oct-19 21:34 34.032861 -119.204083 322 24222ft 365kts
20-Oct-19 21:35 34.116348 -119.277755 326 26848ft 381kts
20-Oct-19 21:36 34.204190 -119.353358 326 29290ft 396kts
20-Oct-19 21:37 34.294738 -119.431532 325 31823ft 403kts
20-Oct-19 21:38 34.384419 -119.509167 324 34681ft 392kts
20-Oct-19 21:39 34.464686 -119.598003 315 36040ft 403kts
20-Oct-19 21:40 34.542109 -119.693532 315 36046ft 395kts
20-Oct-19 21:41 34.619219 -119.788652 315 36046ft 398kts
20-Oct-19 21:42 34.696422 -119.884150 315 36044ft 396kts
20-Oct-19 21:43 34.773574 -119.979849 315 36070ft 396kts
20-Oct-19 21:44 34.850557 -120.075609 315 36117ft 399kts
20-Oct-19 21:45 34.927967 -120.172181 315 36128ft 396kts
20-Oct-19 21:46 35.004676 -120.268144 315 36122ft 397kts
20-Oct-19 21:47 35.081706 -120.364799 315 36119ft 396kts
20-Oct-19 21:48 35.161393 -120.455297 318 36128ft 396kts
20-Oct-19 21:49 35.242736 -120.546457 318 36127ft 395kts
20-Oct-19 21:50 35.323479 -120.637242 318 36125ft 395kts
20-Oct-19 21:51 35.403471 -120.727514 317 36140ft 396kts
20-Oct-19 21:52 35.484443 -120.818613 320 36161ft 395kts
20-Oct-19 21:53 35.572119 -120.900383 322 36172ft 397kts
20-Oct-19 21:54 35.660330 -120.982301 322 36169ft 396kts
20-Oct-19 21:55 35.748216 -121.064175 322 36167ft 398kts
20-Oct-19 21:56 35.836357 -121.146505 322 36163ft 399kts
20-Oct-19 21:57 35.924787 -121.229338 322 36179ft 398kts
20-Oct-19 21:58 36.012967 -121.312207 322 36205ft 399kts
20-Oct-19 21:59 36.100699 -121.390087 327 36203ft 396kts
20-Oct-19 22:00 36.194929 -121.463324 327 35630ft 409kts
20-Oct-19 22:01 36.293036 -121.540043 327 32708ft 428kts
20-Oct-19 22:02 36.392996 -121.618436 327 29499ft 420kts
20-Oct-19 22:03 36.487749 -121.693034 326 26640ft 397kts
20-Oct-19 22:04 36.577033 -121.763736 327 24194ft 369kts
20-Oct-19 22:05 36.660984 -121.830220 327 21653ft 348kts
20-Oct-19 22:06 36.741394 -121.890162 338 19335ft 326kts
20-Oct-19 22:07 36.828193 -121.918467 345 18569ft 318kts
20-Oct-19 22:08 36.913216 -121.942123 345 16168ft 306kts
20-Oct-19 22:09 36.994113 -121.969382 341 14092ft 310kts
20-Oct-19 22:10 37.073974 -122.000660 342 11935ft 292kts
20-Oct-19 22:11 37.146220 -122.028892 342 10819ft 252kts
20-Oct-19 22:12 37.212841 -122.054962 343 9796ft 258kts
20-Oct-19 22:13 37.279969 -122.081300 343 8341ft 247kts
20-Oct-19 22:14 37.345876 -122.107286 343 6680ft 257kts
20-Oct-19 22:15 37.415124 -122.132647 345 4957ft 258kts
20-Oct-19 22:16 37.482562 -122.155671 343 3663ft 234kts
20-Oct-19 22:17 37.535575 -122.185767 314 3052ft 186kts
20-Oct-19 22:18 37.561445 -122.238285 298 2070ft 154kts
20-Oct-19 22:19 37.580768 -122.284858 298 1362ft 155kts
20-Oct-19 22:20 37.599506 -122.329371 296 577ft 140kts
20-Oct-19 22:21 37.616929 -122.370810 297 14ft 74kts
20-Oct-19 22:23 37.618251 -122.379542 188 33ft 11kts
20-Oct-19 22:24 37.615351 -122.380508 208 33ft 9kts
20-Oct-19 22:25 37.610761 -122.383519 210 33ft 9kts
20-Oct-19 22:26 37.611465 -122.386683 298 33ft 13kts
20-Oct-19 22:27 37.612252 -122.389029 300 32ft 0kts

Navigation Log

Ident Type
Flight plan parsing failed, navigation log unavailable